createdAt,value
2019-01-23T00:00:03.365Z,83.3
2019-01-23T00:01:03.758Z,83.3
2019-01-23T00:02:02.704Z,83.3
2019-01-23T00:03:03.451Z,83.5
2019-01-23T00:04:03.504Z,84.9
2019-01-23T00:05:03.718Z,86.1
2019-01-23T00:06:03.450Z,85.6
2019-01-23T00:07:03.131Z,85.6
2019-01-23T00:08:03.222Z,87.7
2019-01-23T00:09:03.179Z,88.2
2019-01-23T00:10:03.331Z,88.4
2019-01-23T00:11:03.129Z,89.8
2019-01-23T00:12:03.556Z,88.4
2019-01-23T00:13:03.789Z,89.8
2019-01-23T00:14:03.775Z,88.2
2019-01-23T00:15:02.976Z,88.2
2019-01-23T00:16:03.133Z,88.2
2019-01-23T00:17:03.280Z,88.2
2019-01-23T00:18:03.273Z,88.6
2019-01-23T00:19:03.039Z,88.6
2019-01-23T00:20:03.425Z,89.8
2019-01-23T00:21:03.483Z,89.8
2019-01-23T00:22:03.304Z,89.1
2019-01-23T00:23:03.105Z,90
2019-01-23T00:24:03.802Z,90
2019-01-23T00:25:03.466Z,90
2019-01-23T00:26:03.685Z,90.3
2019-01-23T00:27:03.065Z,90.3
2019-01-23T00:28:03.111Z,87.5
2019-01-23T00:29:03.361Z,87.5
2019-01-23T00:30:03.289Z,86.5
2019-01-23T00:31:03.432Z,86.5
2019-01-23T00:32:03.264Z,87
2019-01-23T00:33:02.712Z,87.2
2019-01-23T00:34:03.257Z,88.9
2019-01-23T00:35:03.229Z,88.9
2019-01-23T00:36:03.169Z,90.3
2019-01-23T00:37:03.346Z,90
2019-01-23T00:38:03.635Z,89.6
2019-01-23T00:39:02.402Z,90.3
2019-01-23T00:40:03.450Z,89.3
2019-01-23T00:41:03.302Z,88.4
2019-01-23T00:42:02.831Z,88.4
2019-01-23T00:43:02.981Z,89.1
2019-01-23T00:44:03.005Z,89.1
2019-01-23T00:45:03.469Z,89.1
2019-01-23T00:46:03.013Z,90.5
2019-01-23T00:47:03.590Z,90
2019-01-23T00:48:03.909Z,90.3
2019-01-23T00:49:03.232Z,90.7
2019-01-23T00:50:03.306Z,91.2
2019-01-23T00:51:03.230Z,92.4
2019-01-23T00:52:03.358Z,91.9
2019-01-23T00:53:02.842Z,91.4
2019-01-23T00:54:02.980Z,90.5
2019-01-23T00:55:03.051Z,90.5
2019-01-23T00:56:03.814Z,90.7
2019-01-23T00:57:02.240Z,91.2
2019-01-23T00:58:03.686Z,90.3
2019-01-23T00:59:03.456Z,90.7
2019-01-23T01:00:03.592Z,90.5
2019-01-23T01:01:02.849Z,91.7
2019-01-23T01:02:03.476Z,90.7
2019-01-23T01:03:03.795Z,90.5
2019-01-23T01:04:03.114Z,89.8
2019-01-23T01:05:02.885Z,90.3
2019-01-23T01:06:03.331Z,91
2019-01-23T01:07:03.400Z,91
2019-01-23T01:08:03.650Z,91.2
2019-01-23T01:09:03.005Z,91.2
2019-01-23T01:10:03.164Z,91
2019-01-23T01:11:03.582Z,92.4
2019-01-23T01:12:03.298Z,91.7
2019-01-23T01:13:02.908Z,91.7
2019-01-23T01:14:03.438Z,91.2
2019-01-23T01:15:03.192Z,87.2
2019-01-23T01:16:03.213Z,88.2
2019-01-23T01:17:02.659Z,89.1
2019-01-23T01:18:03.527Z,88.6
2019-01-23T01:19:03.301Z,87.9
2019-01-23T01:20:02.328Z,87
2019-01-23T01:21:03.228Z,87
2019-01-23T01:22:03.577Z,86.8
2019-01-23T01:23:03.787Z,85.1
2019-01-23T01:24:03.692Z,86.5
2019-01-23T01:25:03.150Z,85.8
2019-01-23T01:26:03.008Z,85.8
2019-01-23T01:27:02.992Z,87.2
2019-01-23T01:28:03.867Z,86.5
2019-01-23T01:29:02.909Z,87.9
2019-01-23T01:30:03.937Z,87.9
2019-01-23T01:31:03.562Z,87.9
2019-01-23T01:32:03.135Z,88.4
2019-01-23T01:33:03.312Z,88.6
2019-01-23T01:34:03.628Z,89.1
2019-01-23T01:35:03.391Z,89.1
2019-01-23T01:36:03.566Z,88.9
2019-01-23T01:37:03.606Z,88.9
2019-01-23T01:38:03.444Z,90.7
2019-01-23T01:39:03.206Z,90
2019-01-23T01:40:03.373Z,88.6
2019-01-23T01:41:03.125Z,89.1
2019-01-23T01:42:02.511Z,90.3
2019-01-23T01:43:03.159Z,90.5
2019-01-23T01:44:03.498Z,91.4
2019-01-23T01:45:03.810Z,91.4
2019-01-23T01:46:03.159Z,91
2019-01-23T01:47:03.644Z,92.6
2019-01-23T01:48:03.208Z,92.6
2019-01-23T01:49:03.111Z,91.4
2019-01-23T01:50:03.817Z,93.1
2019-01-23T01:51:03.420Z,92.4
2019-01-23T01:52:03.430Z,93.8
2019-01-23T01:53:02.854Z,94.7
2019-01-23T01:54:03.023Z,95.4
2019-01-23T01:55:03.401Z,95.4
2019-01-23T01:56:03.814Z,96.1
2019-01-23T01:57:03.550Z,96.1
2019-01-23T01:58:03.593Z,96.8
2019-01-23T01:59:03.285Z,96.8
2019-01-23T02:00:03.624Z,98.4
2019-01-23T02:01:03.462Z,98.4
2019-01-23T02:02:02.902Z,98
2019-01-23T02:03:03.469Z,97.3
2019-01-23T02:04:03.713Z,99.6
2019-01-23T02:05:03.723Z,97.3
2019-01-23T02:06:03.291Z,97.3
2019-01-23T02:07:02.346Z,96.6
2019-01-23T02:08:03.153Z,95.2
2019-01-23T02:09:03.150Z,95.2
2019-01-23T02:10:03.809Z,94.9
2019-01-23T02:11:03.855Z,97.3
2019-01-23T02:12:03.448Z,96.8
2019-01-23T02:13:03.611Z,97.7
2019-01-23T02:14:03.135Z,98.4
2019-01-23T02:15:02.906Z,100.3
2019-01-23T02:16:03.032Z,100.3
2019-01-23T02:17:03.823Z,100.8
2019-01-23T02:18:02.823Z,101.2
2019-01-23T02:19:03.179Z,101
2019-01-23T02:20:03.152Z,104
2019-01-23T02:21:03.347Z,101.5
2019-01-23T02:22:03.553Z,104.5
2019-01-23T02:23:02.950Z,104.5
2019-01-23T02:24:03.767Z,105
2019-01-23T02:25:03.988Z,105
2019-01-23T02:26:02.739Z,105.9
2019-01-23T02:27:03.551Z,105.7
2019-01-23T02:28:03.480Z,107.1
2019-01-23T02:29:09.952Z,107.1
2019-01-23T02:30:02.787Z,107.5
2019-01-23T02:31:03.565Z,107.1
2019-01-23T02:32:03.338Z,108.2
2019-01-23T02:33:03.255Z,106.6
2019-01-23T02:34:02.934Z,107.1
2019-01-23T02:35:03.680Z,104.7
2019-01-23T02:36:03.568Z,104.7
2019-01-23T02:37:02.969Z,104.7
2019-01-23T02:38:03.079Z,104.7
2019-01-23T02:39:03.595Z,103.6
2019-01-23T02:40:03.373Z,103.6
2019-01-23T02:41:02.933Z,103.6
2019-01-23T02:42:02.021Z,103.6
2019-01-23T02:43:03.033Z,102.6
2019-01-23T02:44:03.458Z,99.8
2019-01-23T02:45:02.965Z,98.4
2019-01-23T02:46:03.605Z,97.7
2019-01-23T02:47:03.625Z,97.5
2019-01-23T02:48:03.610Z,97.5
2019-01-23T02:49:02.908Z,97.3
2019-01-23T02:50:03.876Z,97.5
2019-01-23T02:51:03.225Z,98.2
2019-01-23T02:52:03.790Z,97.7
2019-01-23T02:53:03.002Z,97.5
2019-01-23T02:54:03.727Z,97.5
2019-01-23T02:55:03.687Z,97.3
2019-01-23T02:56:03.546Z,97.5
2019-01-23T02:57:03.045Z,97.3
2019-01-23T02:58:02.991Z,97.3
2019-01-23T02:59:03.078Z,96.1
2019-01-23T03:00:03.612Z,96.1
2019-01-23T03:01:02.865Z,96.3
2019-01-23T03:02:03.490Z,95.6
2019-01-23T03:03:03.002Z,93.5
2019-01-23T03:04:03.478Z,93.5
2019-01-23T03:05:03.292Z,94.9
2019-01-23T03:06:02.905Z,94.9
2019-01-23T03:07:03.336Z,94.7
2019-01-23T03:08:02.875Z,96.1
2019-01-23T03:09:03.934Z,96.8
2019-01-23T03:10:03.076Z,94.9
2019-01-23T03:11:03.091Z,98
2019-01-23T03:12:03.434Z,95.6
2019-01-23T03:13:03.773Z,96.3
2019-01-23T03:14:03.569Z,96.3
2019-01-23T03:15:02.762Z,95.6
2019-01-23T03:16:03.824Z,95.2
2019-01-23T03:17:02.804Z,94.5
2019-01-23T03:18:03.569Z,94.5
2019-01-23T03:19:02.997Z,93.8
2019-01-23T03:20:03.975Z,90.5
2019-01-23T03:21:03.670Z,91
2019-01-23T03:22:03.428Z,91
2019-01-23T03:23:03.734Z,91.2
2019-01-23T03:24:03.466Z,91.2
2019-01-23T03:25:03.274Z,89.3
2019-01-23T03:26:03.350Z,88.9
2019-01-23T03:27:03.133Z,88.2
2019-01-23T03:28:02.935Z,88.2
2019-01-23T03:29:03.033Z,88.6
2019-01-23T03:30:03.914Z,88.6
2019-01-23T03:31:03.490Z,87.5
2019-01-23T03:32:03.389Z,87.7
2019-01-23T03:33:03.755Z,87
2019-01-23T03:34:03.411Z,86.8
2019-01-23T03:35:03.670Z,88.4
2019-01-23T03:36:02.135Z,89.1
2019-01-23T03:37:03.199Z,89.1
2019-01-23T03:38:01.966Z,91.4
2019-01-23T03:39:02.781Z,91
2019-01-23T03:40:03.294Z,90.7
2019-01-23T03:41:03.371Z,90
2019-01-23T03:42:03.678Z,90
2019-01-23T03:43:02.828Z,89.6
2019-01-23T03:44:03.135Z,90.7
2019-01-23T03:45:03.150Z,90.7
2019-01-23T03:46:03.224Z,90.7
2019-01-23T03:47:03.739Z,92.4
2019-01-23T03:48:02.920Z,93.5
2019-01-23T03:49:02.835Z,93.5
2019-01-23T03:50:03.839Z,91.9
2019-01-23T03:51:03.613Z,94.7
2019-01-23T03:52:03.609Z,94.7
2019-01-23T03:53:03.274Z,93.8
2019-01-23T03:54:03.017Z,93.8
2019-01-23T03:55:03.640Z,91.9
2019-01-23T03:56:03.525Z,91.9
2019-01-23T03:57:03.075Z,93.5
2019-01-23T03:58:03.322Z,92.8
2019-01-23T03:59:02.744Z,92.8
2019-01-23T04:00:03.165Z,92.8
2019-01-23T04:01:03.781Z,92.6
2019-01-23T04:02:02.475Z,92.8
2019-01-23T04:03:03.449Z,91.4
2019-01-23T04:04:02.888Z,90.7
2019-01-23T04:05:03.120Z,91
2019-01-23T04:06:03.720Z,90
2019-01-23T04:07:03.603Z,90.7
2019-01-23T04:08:03.190Z,90.5
2019-01-23T04:09:03.077Z,90.5
2019-01-23T04:10:03.768Z,90.5
2019-01-23T04:11:03.470Z,91.4
2019-01-23T04:12:02.998Z,90.7
2019-01-23T04:13:03.609Z,91.2
2019-01-23T04:14:03.236Z,91.2
2019-01-23T04:15:03.470Z,91.9
2019-01-23T04:16:03.266Z,91.9
2019-01-23T04:17:03.036Z,93.1
2019-01-23T04:18:03.672Z,92.6
2019-01-23T04:19:03.391Z,92.4
2019-01-23T04:20:03.246Z,92.4
2019-01-23T04:21:02.732Z,92.1
2019-01-23T04:22:03.859Z,91.4
2019-01-23T04:23:03.446Z,91.4
2019-01-23T04:24:03.028Z,92.4
2019-01-23T04:25:03.555Z,93.3
2019-01-23T04:26:03.106Z,92.4
2019-01-23T04:27:03.819Z,91
2019-01-23T04:28:01.973Z,92.6
2019-01-23T04:29:03.387Z,93.1
2019-01-23T04:30:01.943Z,92.1
2019-01-23T04:31:03.169Z,93.8
2019-01-23T04:32:03.055Z,92.6
2019-01-23T04:33:03.323Z,95.2
2019-01-23T04:34:02.905Z,94.7
2019-01-23T04:35:02.910Z,95.2
2019-01-23T04:36:03.072Z,93.8
2019-01-23T04:37:03.784Z,93.3
2019-01-23T04:38:03.090Z,93.5
2019-01-23T04:39:03.417Z,92.8
2019-01-23T04:40:03.881Z,93.1
2019-01-23T04:41:03.183Z,93.1
2019-01-23T04:42:03.333Z,93.1
2019-01-23T04:43:03.048Z,93.1
2019-01-23T04:44:03.715Z,93.1
2019-01-23T04:45:03.355Z,92.1
2019-01-23T04:46:02.844Z,91.4
2019-01-23T04:47:02.875Z,91.2
2019-01-23T04:48:03.163Z,89.8
2019-01-23T04:49:03.644Z,88.6
2019-01-23T04:50:03.587Z,88.9
2019-01-23T04:51:03.645Z,88.9
2019-01-23T04:52:03.231Z,88.9
2019-01-23T04:53:03.122Z,89.6
2019-01-23T04:54:02.660Z,87.5
2019-01-23T04:55:02.439Z,87.2
2019-01-23T04:56:02.436Z,86.8
2019-01-23T04:57:02.018Z,89.1
2019-01-23T04:58:03.649Z,88.2
2019-01-23T04:59:03.021Z,88.6
2019-01-23T05:00:03.674Z,88.6
2019-01-23T05:01:03.406Z,88.6
2019-01-23T05:02:03.072Z,87.9
2019-01-23T05:03:03.046Z,89.8
2019-01-23T05:04:03.836Z,91.2
2019-01-23T05:05:03.804Z,91.2
2019-01-23T05:06:03.484Z,90
2019-01-23T05:07:03.103Z,91
2019-01-23T05:08:03.599Z,90.7
2019-01-23T05:09:03.342Z,90.7
2019-01-23T05:10:03.188Z,89.8
2019-01-23T05:11:03.002Z,88.2
2019-01-23T05:12:02.833Z,89.1
2019-01-23T05:13:03.025Z,89.3
2019-01-23T05:14:02.855Z,89.3
2019-01-23T05:15:02.873Z,89.6
2019-01-23T05:16:02.927Z,89.8
2019-01-23T05:17:03.467Z,91
2019-01-23T05:18:02.849Z,89.6
2019-01-23T05:19:03.173Z,90
2019-01-23T05:20:03.763Z,90.3
2019-01-23T05:21:03.046Z,90.5
2019-01-23T05:22:03.603Z,90
2019-01-23T05:23:03.329Z,91.7
2019-01-23T05:24:02.868Z,92.6
2019-01-23T05:25:03.733Z,92.4
2019-01-23T05:26:03.161Z,92.6
2019-01-23T05:27:03.697Z,94.2
2019-01-23T05:28:03.078Z,95.4
2019-01-23T05:29:03.060Z,94.9
2019-01-23T05:30:03.287Z,94
2019-01-23T05:31:03.034Z,94.5
2019-01-23T05:32:03.158Z,93.8
2019-01-23T05:33:03.726Z,93.8
2019-01-23T05:34:03.060Z,94.7
2019-01-23T05:35:03.111Z,96.3
2019-01-23T05:36:03.510Z,96.3
2019-01-23T05:37:03.262Z,94.5
2019-01-23T05:38:03.451Z,96.3
2019-01-23T05:39:03.111Z,98.4
2019-01-23T05:40:03.846Z,97.3
2019-01-23T05:41:03.681Z,96.1
2019-01-23T05:42:03.187Z,95.6
2019-01-23T05:43:03.823Z,95.6
2019-01-23T05:44:03.354Z,96.6
2019-01-23T05:45:03.283Z,95.9
2019-01-23T05:46:03.318Z,96.1
2019-01-23T05:47:03.317Z,96.1
2019-01-23T05:48:03.508Z,96.8
2019-01-23T05:49:03.725Z,96.3
2019-01-23T05:50:03.173Z,96.3
2019-01-23T05:51:03.360Z,96.3
2019-01-23T05:52:03.086Z,96.8
2019-01-23T05:53:03.275Z,96.6
2019-01-23T05:54:03.079Z,98.2
2019-01-23T05:55:03.230Z,97.7
2019-01-23T05:56:03.167Z,98.7
2019-01-23T05:57:03.533Z,98.7
2019-01-23T05:58:03.815Z,97.7
2019-01-23T05:59:03.582Z,97.7
2019-01-23T06:00:03.628Z,99.6
2019-01-23T06:01:03.738Z,99.6
2019-01-23T06:02:02.846Z,99.1
2019-01-23T06:03:03.390Z,99.1
2019-01-23T06:04:03.173Z,96.8
2019-01-23T06:05:02.975Z,99.1
2019-01-23T06:06:03.818Z,91.4
2019-01-23T06:07:03.011Z,91.4
2019-01-23T06:08:03.704Z,90.7
2019-01-23T06:09:02.375Z,89.6
2019-01-23T06:10:03.858Z,90.3
2019-01-23T06:11:03.555Z,90.3
2019-01-23T06:12:03.509Z,91.2
2019-01-23T06:13:03.778Z,90.5
2019-01-23T06:14:03.614Z,91.7
2019-01-23T06:15:03.142Z,91.7
2019-01-23T06:16:03.583Z,91.7
2019-01-23T06:17:02.840Z,90.7
2019-01-23T06:18:03.836Z,91.2
2019-01-23T06:19:03.361Z,91.2
2019-01-23T06:20:03.596Z,91
2019-01-23T06:21:02.920Z,91
2019-01-23T06:22:03.631Z,91.4
2019-01-23T06:23:03.431Z,91.4
2019-01-23T06:24:03.621Z,90.7
2019-01-23T06:25:03.792Z,90.7
2019-01-23T06:26:03.649Z,91.2
2019-01-23T06:27:03.412Z,91.2
2019-01-23T06:28:02.839Z,91.7
2019-01-23T06:29:03.316Z,90.5
2019-01-23T06:30:10.795Z,87.5
2019-01-23T06:31:03.357Z,85.8
2019-01-23T06:32:03.102Z,86.3
2019-01-23T06:33:01.978Z,85.8
2019-01-23T06:34:02.096Z,85.1
2019-01-23T06:35:02.256Z,83.3
2019-01-23T06:36:03.043Z,81.9
2019-01-23T06:37:03.526Z,83
2019-01-23T06:38:03.610Z,84.2
2019-01-23T06:39:02.989Z,84.2
2019-01-23T06:40:03.778Z,82.8
2019-01-23T06:41:03.051Z,83.5
2019-01-23T06:42:02.854Z,83.5
2019-01-23T06:43:03.481Z,85.4
2019-01-23T06:44:03.455Z,85.6
2019-01-23T06:45:03.905Z,84.4
2019-01-23T06:46:03.554Z,84.7
2019-01-23T06:47:03.756Z,84.7
2019-01-23T06:48:03.309Z,82.6
2019-01-23T06:49:02.507Z,84.2
2019-01-23T06:50:03.268Z,85.1
2019-01-23T06:51:03.518Z,84.7
2019-01-23T06:52:03.489Z,84.7
2019-01-23T06:53:03.139Z,84
2019-01-23T06:54:03.552Z,84.2
2019-01-23T06:55:03.666Z,83.7
2019-01-23T06:56:02.869Z,84.2
2019-01-23T06:57:03.130Z,84
2019-01-23T06:58:02.239Z,84
2019-01-23T06:59:02.858Z,84.4
2019-01-23T07:00:02.938Z,84
2019-01-23T07:01:03.235Z,84.7
2019-01-23T07:02:03.845Z,85.1
2019-01-23T07:03:03.670Z,85.4
2019-01-23T07:04:03.364Z,89.8
2019-01-23T07:05:03.816Z,90
2019-01-23T07:06:03.272Z,90
2019-01-23T07:07:03.074Z,94.5
2019-01-23T07:08:03.310Z,94.7
2019-01-23T07:09:03.181Z,94.2
2019-01-23T07:10:03.833Z,94.2
2019-01-23T07:11:03.090Z,94
2019-01-23T07:12:02.938Z,93.1
2019-01-23T07:13:03.721Z,93.1
2019-01-23T07:14:03.536Z,92.1
2019-01-23T07:15:03.572Z,94.5
2019-01-23T07:16:03.707Z,94.5
2019-01-23T07:17:03.479Z,92.6
2019-01-23T07:18:03.332Z,92.6
2019-01-23T07:19:03.484Z,93.1
2019-01-23T07:20:03.396Z,93.1
2019-01-23T07:21:03.661Z,93.5
2019-01-23T07:22:03.564Z,92.6
2019-01-23T07:23:03.212Z,91.9
2019-01-23T07:24:02.955Z,90.5
2019-01-23T07:25:03.269Z,89.8
2019-01-23T07:26:02.486Z,88.6
2019-01-23T07:27:03.280Z,90.5
2019-01-23T07:28:03.645Z,89.6
2019-01-23T07:29:02.726Z,89.3
2019-01-23T07:30:03.059Z,89.6
2019-01-23T07:31:03.891Z,91
2019-01-23T07:32:03.401Z,91.2
2019-01-23T07:33:02.911Z,90.7
2019-01-23T07:34:03.707Z,90.7
2019-01-23T07:35:03.167Z,91.2
2019-01-23T07:36:03.017Z,91.2
2019-01-23T07:37:03.683Z,91.4
2019-01-23T07:38:03.050Z,91.7
2019-01-23T07:39:03.640Z,90.5
2019-01-23T07:40:02.908Z,91.9
2019-01-23T07:41:03.543Z,91.9
2019-01-23T07:42:03.045Z,92.1
2019-01-23T07:43:03.139Z,91.2
2019-01-23T07:44:02.925Z,91.2
2019-01-23T07:45:03.185Z,91.9
2019-01-23T07:46:03.061Z,91.2
2019-01-23T07:47:03.304Z,91.2
2019-01-23T07:48:03.720Z,92.8
2019-01-23T07:49:03.168Z,92.8
2019-01-23T07:50:03.237Z,92.6
2019-01-23T07:51:03.680Z,92.4
2019-01-23T07:52:03.068Z,92.4
2019-01-23T07:53:02.978Z,92.8
2019-01-23T07:54:05.061Z,91.9
2019-01-23T07:55:03.462Z,91.9
2019-01-23T07:56:03.418Z,91.2
2019-01-23T07:57:03.321Z,90.3
2019-01-23T07:58:02.703Z,90.5
2019-01-23T07:59:03.959Z,90
2019-01-23T08:00:03.527Z,91.2
2019-01-23T08:01:03.030Z,91
2019-01-23T08:02:03.638Z,89.6
2019-01-23T08:03:03.727Z,87.9
2019-01-23T08:04:03.201Z,89.6
2019-01-23T08:05:03.524Z,86.8
2019-01-23T08:06:03.403Z,85.8
2019-01-23T08:07:03.696Z,87.7
2019-01-23T08:08:03.204Z,87.7
2019-01-23T08:09:03.604Z,87.2
2019-01-23T08:10:03.141Z,88.4
2019-01-23T08:11:03.576Z,88.6
2019-01-23T08:12:03.209Z,88.6
2019-01-23T08:13:03.777Z,88.4
2019-01-23T08:14:03.273Z,89.1
2019-01-23T08:15:02.799Z,88.4
2019-01-23T08:16:03.284Z,89.3
2019-01-23T08:17:02.791Z,88.9
2019-01-23T08:18:03.557Z,90.5
2019-01-23T08:19:03.188Z,89.3
2019-01-23T08:20:03.104Z,89.3
2019-01-23T08:21:03.071Z,89.8
2019-01-23T08:22:02.583Z,90
2019-01-23T08:23:02.949Z,91.2
2019-01-23T08:24:02.475Z,91.7
2019-01-23T08:25:03.811Z,93.1
2019-01-23T08:26:02.525Z,92.4
2019-01-23T08:27:07.398Z,93.5
2019-01-23T08:28:02.922Z,93.5
2019-01-23T08:29:03.089Z,96.3
2019-01-23T08:30:02.907Z,95.9
2019-01-23T08:31:02.794Z,94.9
2019-01-23T08:32:02.938Z,95.4
2019-01-23T08:33:03.857Z,95.6
2019-01-23T08:34:03.483Z,95.6
2019-01-23T08:35:02.960Z,95.9
2019-01-23T08:36:03.236Z,95.2
2019-01-23T08:37:03.732Z,95.6
2019-01-23T08:38:02.920Z,95.6
2019-01-23T08:39:03.873Z,95.6
2019-01-23T08:40:03.339Z,95.6
2019-01-23T08:41:03.024Z,96.1
2019-01-23T08:42:03.240Z,95.9
2019-01-23T08:43:03.785Z,95.9
2019-01-23T08:44:03.559Z,95.2
2019-01-23T08:45:03.804Z,98.4
2019-01-23T08:46:03.690Z,97.7
2019-01-23T08:47:03.300Z,98.7
2019-01-23T08:48:02.996Z,99.1
2019-01-23T08:49:03.100Z,97.7
2019-01-23T08:50:03.448Z,97
2019-01-23T08:51:03.001Z,97
2019-01-23T08:52:03.174Z,96.8
2019-01-23T08:53:02.859Z,96.8
2019-01-23T08:54:02.374Z,96.3
2019-01-23T08:55:01.992Z,94.9
2019-01-23T08:56:03.388Z,94.5
2019-01-23T08:57:03.299Z,94.9
2019-01-23T08:58:03.714Z,94.9
2019-01-23T08:59:03.079Z,94.5
2019-01-23T09:00:03.888Z,94.2
2019-01-23T09:01:03.686Z,92.6
2019-01-23T09:02:03.531Z,94.2
2019-01-23T09:03:03.075Z,95.4
2019-01-23T09:04:03.783Z,94.7
2019-01-23T09:05:03.366Z,94.5
2019-01-23T09:06:02.926Z,95.4
2019-01-23T09:07:03.648Z,95.4
2019-01-23T09:08:03.074Z,95.2
2019-01-23T09:09:03.701Z,92.8
2019-01-23T09:10:03.451Z,92.8
2019-01-23T09:11:02.943Z,94.7
2019-01-23T09:12:03.289Z,93.5
2019-01-23T09:13:02.713Z,93.5
2019-01-23T09:14:03.646Z,93.3
2019-01-23T09:15:03.199Z,92.4
2019-01-23T09:16:03.277Z,94.5
2019-01-23T09:17:02.975Z,95.2
2019-01-23T09:18:03.616Z,95.6
2019-01-23T09:19:02.532Z,96.6
2019-01-23T09:20:03.088Z,96.6
2019-01-23T09:21:02.789Z,97.5
2019-01-23T09:22:03.879Z,98
2019-01-23T09:23:03.410Z,96.8
2019-01-23T09:24:03.701Z,95.9
2019-01-23T09:25:03.104Z,95.9
2019-01-23T09:26:02.843Z,96.6
2019-01-23T09:27:03.889Z,96.6
2019-01-23T09:28:02.960Z,96.1
2019-01-23T09:29:03.136Z,97
2019-01-23T09:30:03.765Z,96.1
2019-01-23T09:31:03.368Z,96.1
2019-01-23T09:32:03.081Z,97.5
2019-01-23T09:33:03.793Z,97.5
2019-01-23T09:34:03.356Z,97.5
2019-01-23T09:35:03.796Z,97.5
2019-01-23T09:36:03.766Z,97.3
2019-01-23T09:37:03.734Z,97.3
2019-01-23T09:38:03.091Z,98.2
2019-01-23T09:39:02.995Z,97.5
2019-01-23T09:40:03.172Z,98.7
2019-01-23T09:41:02.543Z,98.9
2019-01-23T09:42:03.795Z,97.7
2019-01-23T09:43:02.045Z,98.4
2019-01-23T09:44:03.656Z,96.8
2019-01-23T09:45:02.978Z,96.8
2019-01-23T09:46:03.474Z,96.1
2019-01-23T09:47:02.921Z,95.6
2019-01-23T09:48:03.345Z,94.5
2019-01-23T09:49:03.052Z,94.9
2019-01-23T09:50:03.706Z,96.1
2019-01-23T09:51:03.844Z,94.9
2019-01-23T09:52:03.472Z,96.8
2019-01-23T09:53:03.015Z,96.8
2019-01-23T09:54:03.442Z,95.2
2019-01-23T09:55:02.935Z,95.2
2019-01-23T09:56:03.046Z,94
2019-01-23T09:57:03.367Z,94
2019-01-23T09:58:03.437Z,93.5
2019-01-23T09:59:03.319Z,92.4
2019-01-23T10:00:02.966Z,92.1
2019-01-23T10:01:06.981Z,92.1
2019-01-23T10:02:03.003Z,92.6
2019-01-23T10:03:02.909Z,92.8
2019-01-23T10:04:02.989Z,92.8
2019-01-23T10:05:02.844Z,92.1
2019-01-23T10:06:03.616Z,92.1
2019-01-23T10:07:03.572Z,90.7
2019-01-23T10:08:03.738Z,87.5
2019-01-23T10:09:02.923Z,87.5
2019-01-23T10:10:03.118Z,88.2
2019-01-23T10:11:03.679Z,88.9
2019-01-23T10:12:02.969Z,88.6
2019-01-23T10:13:03.466Z,88.9
2019-01-23T10:14:03.288Z,88.2
2019-01-23T10:15:03.632Z,86.5
2019-01-23T10:16:03.120Z,86.5
2019-01-23T10:17:03.338Z,84.9
2019-01-23T10:18:03.005Z,82.8
2019-01-23T10:19:03.008Z,80.7
2019-01-23T10:20:03.921Z,80
2019-01-23T10:21:02.898Z,79.8
2019-01-23T10:22:02.731Z,80.2
2019-01-23T10:23:02.994Z,81.9
2019-01-23T10:24:02.828Z,82.8
2019-01-23T10:25:03.185Z,82.8
2019-01-23T10:26:03.715Z,82.8
2019-01-23T10:27:03.213Z,82.8
2019-01-23T10:28:03.696Z,82.8
2019-01-23T10:29:03.475Z,84.2
2019-01-23T10:30:02.993Z,84.2
2019-01-23T10:31:07.194Z,83.5
2019-01-23T10:32:03.104Z,83.7
2019-01-23T10:33:03.847Z,82.1
2019-01-23T10:34:03.277Z,80.7
2019-01-23T10:35:03.677Z,80.9
2019-01-23T10:36:02.207Z,81.6
2019-01-23T10:37:03.722Z,82.3
2019-01-23T10:38:03.314Z,82.3
2019-01-23T10:39:03.378Z,82.3
2019-01-23T10:40:03.206Z,81.9
2019-01-23T10:41:03.621Z,82.3
2019-01-23T10:42:02.908Z,82.3
2019-01-23T10:43:02.890Z,82.1
2019-01-23T10:44:03.797Z,82.1
2019-01-23T10:45:03.462Z,82.1
2019-01-23T10:46:03.453Z,81.6
2019-01-23T10:47:03.691Z,82.6
2019-01-23T10:48:03.103Z,80.2
2019-01-23T10:49:03.547Z,81.4
2019-01-23T10:50:03.331Z,82.6
2019-01-23T10:51:03.355Z,80.5
2019-01-23T10:52:03.787Z,83.5
2019-01-23T10:53:03.018Z,84.9
2019-01-23T10:54:02.871Z,84.9
2019-01-23T10:55:03.556Z,85.6
2019-01-23T10:56:03.177Z,85.6
2019-01-23T10:57:03.849Z,89.3
2019-01-23T10:58:03.885Z,89.6
2019-01-23T10:59:02.482Z,88.4
2019-01-23T11:00:03.447Z,87.9
2019-01-23T11:01:03.555Z,90.3
2019-01-23T11:02:03.320Z,91.2
2019-01-23T11:03:10.869Z,90.5
2019-01-23T11:04:03.722Z,89.6
2019-01-23T11:05:03.031Z,90
2019-01-23T11:06:03.489Z,89.3
2019-01-23T11:07:03.412Z,88.9
2019-01-23T11:08:02.289Z,90.3
2019-01-23T11:09:03.356Z,91
2019-01-23T11:10:03.317Z,91
2019-01-23T11:11:03.323Z,91.2
2019-01-23T11:12:01.914Z,91.7
2019-01-23T11:13:03.416Z,91.4
2019-01-23T11:14:03.022Z,90.5
2019-01-23T11:15:01.904Z,91.7
2019-01-23T11:16:03.854Z,92.8
2019-01-23T11:17:03.172Z,93.5
2019-01-23T11:18:03.836Z,93.5
2019-01-23T11:19:03.581Z,95.6
2019-01-23T11:20:03.580Z,94.9
2019-01-23T11:21:03.133Z,94.9
2019-01-23T11:22:02.957Z,95.4
2019-01-23T11:23:03.339Z,92.8
2019-01-23T11:24:03.325Z,91.4
2019-01-23T11:25:03.049Z,90.7
2019-01-23T11:26:02.995Z,90
2019-01-23T11:27:02.831Z,91
2019-01-23T11:28:03.195Z,91.4
2019-01-23T11:29:02.638Z,90.7
2019-01-23T11:30:03.587Z,90.7
2019-01-23T11:31:03.470Z,90
2019-01-23T11:32:02.860Z,89.6
2019-01-23T11:33:03.639Z,87.9
2019-01-23T11:34:03.616Z,87.9
2019-01-23T11:35:03.432Z,89.1
2019-01-23T11:36:03.048Z,89.1
2019-01-23T11:37:03.145Z,89.3
2019-01-23T11:38:03.536Z,88.6
2019-01-23T11:39:02.701Z,88.2
2019-01-23T11:40:02.341Z,88.6
2019-01-23T11:41:03.875Z,87.7
2019-01-23T11:42:02.353Z,86.5
2019-01-23T11:43:03.365Z,87.7
2019-01-23T11:44:03.402Z,86.8
2019-01-23T11:45:03.378Z,86.8
2019-01-23T11:46:03.821Z,87.2
2019-01-23T11:47:02.931Z,87.5
2019-01-23T11:48:03.220Z,87
2019-01-23T11:49:02.780Z,87.5
2019-01-23T11:50:03.233Z,86.5
2019-01-23T11:51:03.651Z,87.5
2019-01-23T11:52:03.708Z,87.5
2019-01-23T11:53:02.998Z,87
2019-01-23T11:54:03.451Z,87.5
2019-01-23T11:55:03.808Z,86.8
2019-01-23T11:56:03.124Z,88.6
2019-01-23T11:57:03.469Z,89.1
2019-01-23T11:58:03.091Z,90.3
2019-01-23T11:59:03.346Z,87.7
2019-01-23T12:00:03.317Z,92.1
2019-01-23T12:01:03.539Z,91.9
2019-01-23T12:02:03.516Z,93.3
2019-01-23T12:03:03.330Z,93.3
2019-01-23T12:04:03.477Z,93.1
2019-01-23T12:05:03.163Z,93.1
2019-01-23T12:06:02.851Z,95.9
2019-01-23T12:07:02.941Z,95.4
2019-01-23T12:08:03.831Z,95.4
2019-01-23T12:09:03.403Z,95.4
2019-01-23T12:10:03.048Z,94.5
2019-01-23T12:11:03.782Z,95.2
2019-01-23T12:12:03.630Z,94.7
2019-01-23T12:13:03.280Z,94
2019-01-23T12:14:03.206Z,96.3
2019-01-23T12:15:03.891Z,96.3
2019-01-23T12:16:03.408Z,97.3
2019-01-23T12:17:03.244Z,98
2019-01-23T12:18:02.594Z,97.3
2019-01-23T12:19:03.188Z,96.6
2019-01-23T12:20:02.680Z,97.3
2019-01-23T12:21:03.905Z,97.3
2019-01-23T12:22:03.505Z,97.5
2019-01-23T12:23:03.393Z,97.5
2019-01-23T12:24:03.432Z,97.7
2019-01-23T12:25:03.460Z,96.6
2019-01-23T12:26:03.747Z,97.3
2019-01-23T12:27:03.585Z,97.3
2019-01-23T12:28:02.913Z,96.1
2019-01-23T12:29:03.202Z,96.1
2019-01-23T12:30:03.372Z,94.7
2019-01-23T12:31:02.838Z,94.7
2019-01-23T12:32:02.781Z,96.3
2019-01-23T12:33:03.729Z,96.3
2019-01-23T12:34:02.959Z,97.3
2019-01-23T12:35:02.926Z,97.7
2019-01-23T12:36:03.087Z,99.1
2019-01-23T12:37:03.505Z,99.6
2019-01-23T12:38:03.203Z,99.6
2019-01-23T12:39:03.323Z,101.7
2019-01-23T12:40:03.558Z,103.6
2019-01-23T12:41:03.349Z,103.6
2019-01-23T12:42:02.878Z,102.9
2019-01-23T12:43:03.498Z,102.9
2019-01-23T12:44:02.501Z,100.1
2019-01-23T12:45:02.906Z,100.1
2019-01-23T12:46:01.705Z,101.2
2019-01-23T12:47:02.104Z,100.5
2019-01-23T12:48:03.627Z,100.8
2019-01-23T12:49:03.774Z,101.5
2019-01-23T12:50:03.253Z,99.6
2019-01-23T12:51:03.001Z,98.4
2019-01-23T12:52:03.678Z,98.2
2019-01-23T12:53:03.548Z,99.1
2019-01-23T12:54:03.025Z,97.5
2019-01-23T12:55:03.571Z,97.5
2019-01-23T12:56:03.735Z,98.2
2019-01-23T12:57:03.027Z,94.5
2019-01-23T12:58:03.736Z,94.5
2019-01-23T12:59:03.295Z,93.3
2019-01-23T13:00:05.679Z,93.5
2019-01-23T13:01:03.695Z,92.1
2019-01-23T13:02:10.162Z,92.1
2019-01-23T13:03:03.333Z,89.1
2019-01-23T13:04:02.982Z,89.1
2019-01-23T13:05:03.789Z,86.1
2019-01-23T13:06:03.621Z,85.6
2019-01-23T13:07:02.967Z,83.7
2019-01-23T13:08:03.712Z,83.7
2019-01-23T13:09:03.131Z,84.4
2019-01-23T13:10:03.260Z,85.4
2019-01-23T13:11:02.251Z,85.4
2019-01-23T13:12:02.594Z,86.8
2019-01-23T13:13:03.567Z,87.9
2019-01-23T13:14:03.770Z,87.9
2019-01-23T13:15:03.689Z,87.5
2019-01-23T13:16:03.036Z,87
2019-01-23T13:17:03.138Z,85.8
2019-01-23T13:18:03.557Z,86.1
2019-01-23T13:19:03.473Z,85.6
2019-01-23T13:20:03.435Z,86.3
2019-01-23T13:21:03.495Z,86.8